createdAt,value
2019-01-18T00:02:10.261Z,97505.03
2019-01-18T00:06:14.937Z,97519.59
2019-01-18T00:10:19.613Z,97516.37
2019-01-18T00:14:24.286Z,97514.11
2019-01-18T00:18:29.339Z,97522.70
2019-01-18T00:22:34.004Z,97528.56
2019-01-18T00:26:38.675Z,97531.14
2019-01-18T00:30:43.353Z,97533.28
2019-01-18T00:34:48.030Z,97534.58
2019-01-18T00:38:52.711Z,97536.36
2019-01-18T00:42:57.370Z,97541.63
2019-01-18T00:47:02.043Z,97551.95
2019-01-18T00:51:06.724Z,97555.34
2019-01-18T00:55:12.133Z,97559.22
2019-01-18T00:59:16.799Z,97561.84
2019-01-18T01:03:21.477Z,97561.41
2019-01-18T01:07:26.149Z,97572.55
2019-01-18T01:11:30.838Z,97580.22
2019-01-18T01:15:35.510Z,97577.95
2019-01-18T01:19:40.182Z,97585.11
2019-01-18T01:23:44.869Z,97577.31
2019-01-18T01:27:49.709Z,97591.23
2019-01-18T01:31:54.379Z,97599.97
2019-01-18T01:36:00.029Z,97603.36
2019-01-18T01:40:08.200Z,97610.66
2019-01-18T01:44:12.881Z,97612.77
2019-01-18T01:48:17.556Z,97640.30
2019-01-18T01:52:22.229Z,97640.73
2019-01-18T01:56:26.900Z,97638.63
2019-01-18T02:00:31.570Z,97642.49
2019-01-18T02:04:36.314Z,97652.78
2019-01-18T02:08:40.996Z,97651.81
2019-01-18T02:12:45.674Z,97654.97
2019-01-18T02:16:51.417Z,97665.02
2019-01-18T02:20:56.089Z,97672.29
2019-01-18T02:25:00.769Z,97682.60
2019-01-18T02:29:05.449Z,97679.07
2019-01-18T02:33:10.121Z,97687.62
2019-01-18T02:37:14.798Z,97694.89
2019-01-18T02:41:19.463Z,97690.25
2019-01-18T02:45:24.140Z,97694.27
2019-01-18T02:49:28.815Z,97696.94
2019-01-18T02:53:33.486Z,97714.53
2019-01-18T02:57:38.172Z,97721.31
2019-01-18T03:01:42.836Z,97726.39
2019-01-18T03:05:47.514Z,97729.78
2019-01-18T03:09:52.191Z,97739.21
2019-01-18T03:13:56.865Z,97739.16
2019-01-18T03:18:01.543Z,97750.87
2019-01-18T03:22:06.210Z,97753.06
2019-01-18T03:26:10.892Z,97751.00
2019-01-18T03:30:20.079Z,97748.11
2019-01-18T03:34:23.776Z,97757.62
2019-01-18T03:38:28.451Z,97758.08
2019-01-18T03:42:33.128Z,97762.89
2019-01-18T03:46:37.792Z,97768.12
2019-01-18T03:50:42.475Z,97770.73
2019-01-18T03:54:47.150Z,97776.81
2019-01-18T03:58:51.833Z,97785.86
2019-01-18T04:02:56.503Z,97806.98
2019-01-18T04:07:01.182Z,97808.70
2019-01-18T04:11:05.865Z,97821.61
2019-01-18T04:15:12.779Z,97832.78
2019-01-18T04:19:17.463Z,97843.13
2019-01-18T04:23:22.215Z,97850.85
2019-01-18T04:27:26.891Z,97855.58
2019-01-18T04:31:31.577Z,97866.72
2019-01-18T04:35:36.255Z,97869.22
2019-01-18T04:39:40.923Z,97870.89
2019-01-18T04:43:45.595Z,97877.77
2019-01-18T04:47:50.273Z,97877.77
2019-01-18T04:51:54.949Z,97884.27
2019-01-18T04:55:59.627Z,97886.45
2019-01-18T05:00:07.556Z,97889.51
2019-01-18T05:04:12.509Z,97898.55
2019-01-18T05:08:17.185Z,97909.29
2019-01-18T05:12:21.869Z,97913.13
2019-01-18T05:16:26.553Z,97917.00
2019-01-18T05:20:31.219Z,97922.58
2019-01-18T05:24:35.905Z,97929.89
2019-01-18T05:28:40.574Z,97919.56
2019-01-18T05:32:45.251Z,97930.27
2019-01-18T05:36:49.915Z,97937.98
2019-01-18T05:40:54.601Z,97953.44
2019-01-18T05:44:59.274Z,97957.33
2019-01-18T05:49:03.954Z,97969.38
2019-01-18T05:53:09.404Z,97973.69
2019-01-18T05:57:14.084Z,97973.30
2019-01-18T06:01:18.756Z,97981.03
2019-01-18T06:05:23.505Z,97985.36
2019-01-18T06:09:28.193Z,97983.66
2019-01-18T06:13:32.882Z,97993.53
2019-01-18T06:17:37.553Z,97995.70
2019-01-18T06:21:42.235Z,98005.13
2019-01-18T06:25:46.918Z,98003.87
2019-01-18T06:29:51.600Z,98011.59
2019-01-18T06:33:56.336Z,98006.87
2019-01-18T06:38:00.972Z,98025.32
2019-01-18T06:42:05.656Z,98025.76
2019-01-18T06:46:10.616Z,98042.93
2019-01-18T06:50:17.239Z,98045.08
2019-01-18T06:54:21.914Z,98047.20
2019-01-18T06:58:26.609Z,98054.53
2019-01-18T07:02:31.296Z,98054.09
2019-01-18T07:06:35.981Z,98056.25
2019-01-18T07:10:40.655Z,98058.39
2019-01-18T07:14:45.342Z,98063.55
2019-01-18T07:18:50.046Z,98059.67
2019-01-18T07:22:54.734Z,98070.41
2019-01-18T07:26:59.442Z,98080.70
2019-01-18T07:31:04.141Z,98084.56
2019-01-18T07:35:09.113Z,98095.73
2019-01-18T07:39:13.806Z,98112.48
2019-01-18T07:43:18.501Z,98112.03
2019-01-18T07:47:23.192Z,98127.06
2019-01-18T07:51:27.877Z,98130.06
2019-01-18T07:55:32.827Z,98129.62
2019-01-18T07:59:37.503Z,98138.66
2019-01-18T08:03:42.198Z,98140.41
2019-01-18T08:07:46.897Z,98146.83
2019-01-18T08:11:52.568Z,98161.39
2019-01-18T08:15:57.251Z,98170.00
2019-01-18T08:20:01.946Z,98169.61
2019-01-18T08:24:06.633Z,98170.50
2019-01-18T08:28:11.325Z,98179.98
2019-01-18T08:32:15.989Z,98194.59
2019-01-18T08:36:20.679Z,98198.91
2019-01-18T08:40:30.949Z,98195.88
2019-01-18T08:44:35.633Z,98195.88
2019-01-18T08:48:40.320Z,98207.48
2019-01-18T08:52:45.000Z,98199.74
2019-01-18T08:56:49.689Z,98208.31
2019-01-18T09:00:54.383Z,98211.77
2019-01-18T09:04:59.064Z,98216.48
2019-01-18T09:09:05.618Z,98215.59
2019-01-18T09:13:10.297Z,98218.59
2019-01-18T09:17:14.979Z,98225.92
2019-01-18T09:21:19.655Z,98230.21
2019-01-18T09:25:24.344Z,98239.64
2019-01-18T09:29:29.030Z,98247.37
2019-01-18T09:33:33.697Z,98246.92
2019-01-18T09:37:38.392Z,98252.09
2019-01-18T09:41:44.170Z,98265.38
2019-01-18T09:45:48.955Z,98264.09
2019-01-18T09:49:53.644Z,98264.52
2019-01-18T09:53:58.317Z,98265.40
2019-01-18T09:58:03.002Z,98269.72
2019-01-18T10:02:07.676Z,98277.47
2019-01-18T10:06:12.366Z,98292.06
2019-01-18T10:10:21.708Z,98281.23
2019-01-18T10:14:26.367Z,98278.86
2019-01-18T10:18:31.037Z,98284.25
2019-01-18T10:22:35.715Z,98292.45
2019-01-18T10:26:40.391Z,98286.04
2019-01-18T10:30:45.084Z,98277.02
2019-01-18T10:34:49.757Z,98286.91
2019-01-18T10:38:54.445Z,98278.36
2019-01-18T10:42:59.128Z,98285.42
2019-01-18T10:47:03.812Z,98275.25
2019-01-18T10:51:08.490Z,98280.88
2019-01-18T10:55:13.169Z,98276.19
2019-01-18T10:59:17.855Z,98283.47
2019-01-18T11:03:22.525Z,98287.80
2019-01-18T11:07:27.197Z,98283.04
2019-01-18T11:11:31.888Z,98290.83
2019-01-18T11:15:36.566Z,98288.67
2019-01-18T11:19:41.246Z,98292.12
2019-01-18T11:23:46.895Z,98295.11
2019-01-18T11:27:51.579Z,98293.77
2019-01-18T11:31:56.263Z,98293.37
2019-01-18T11:36:00.926Z,98293.34
2019-01-18T11:40:08.865Z,98287.23
2019-01-18T11:44:13.552Z,98293.16
2019-01-18T11:48:18.238Z,98294.78
2019-01-18T11:52:22.909Z,98293.41
2019-01-18T11:56:27.592Z,98289.03
2019-01-18T12:00:37.737Z,98286.81
2019-01-18T12:04:38.645Z,98282.92
2019-01-18T12:08:43.323Z,98284.19
2019-01-18T12:12:47.992Z,98288.44
2019-01-18T12:16:52.674Z,98285.81
2019-01-18T12:20:58.723Z,98279.66
2019-01-18T12:25:03.479Z,98273.97
2019-01-18T12:29:08.158Z,98271.92
2019-01-18T12:33:12.838Z,98272.23
2019-01-18T12:37:17.512Z,98268.23
2019-01-18T12:41:22.196Z,98262.09
2019-01-18T12:45:26.883Z,98252.97
2019-01-18T12:49:31.565Z,98257.72
2019-01-18T12:53:36.250Z,98251.67
2019-01-18T12:57:40.917Z,98250.91
2019-01-18T13:01:45.594Z,98249.56
2019-01-18T13:05:50.266Z,98254.27
2019-01-18T13:09:54.952Z,98252.48
2019-01-18T13:13:59.644Z,98249.76
2019-01-18T13:18:04.400Z,98237.59
2019-01-18T13:22:09.074Z,98237.55
2019-01-18T13:26:13.751Z,98241.06
2019-01-18T13:30:19.172Z,98243.17
2019-01-18T13:34:23.854Z,98245.22
2019-01-18T13:38:28.522Z,98250.25
2019-01-18T13:42:33.206Z,98245.11
2019-01-18T13:46:38.853Z,98247.81
2019-01-18T13:50:43.525Z,98241.81
2019-01-18T13:54:48.191Z,98243.55
2019-01-18T13:58:52.879Z,98231.59
2019-01-18T14:02:57.566Z,98238.62
2019-01-18T14:07:02.247Z,98239.53
2019-01-18T14:11:08.093Z,98233.05
2019-01-18T14:15:17.993Z,98225.33
2019-01-18T14:19:22.676Z,98231.05
2019-01-18T14:23:27.368Z,98243.61
2019-01-18T14:27:32.042Z,98239.72
2019-01-18T14:31:36.733Z,98241.50
2019-01-18T14:35:42.370Z,98246.38
2019-01-18T14:39:47.048Z,98252.08
2019-01-18T14:43:51.739Z,98248.70
2019-01-18T14:47:56.417Z,98253.59
2019-01-18T14:52:01.093Z,98261.02
2019-01-18T14:56:05.773Z,98267.59
2019-01-18T15:00:19.538Z,98275.00
2019-01-18T15:04:25.194Z,98279.36
2019-01-18T15:08:29.872Z,98270.35
2019-01-18T15:12:35.372Z,98276.84
2019-01-18T15:16:40.041Z,98277.73
2019-01-18T15:20:44.716Z,98273.03
2019-01-18T15:24:49.391Z,98277.33
2019-01-18T15:28:54.071Z,98276.94
2019-01-18T15:32:58.750Z,98279.57
2019-01-18T15:37:03.417Z,98277.00
2019-01-18T15:41:08.089Z,98282.23
2019-01-18T15:45:12.762Z,98280.95
2019-01-18T15:49:17.448Z,98288.30
2019-01-18T15:53:22.130Z,98294.34
2019-01-18T15:57:26.810Z,98288.34
2019-01-18T16:01:31.498Z,98299.50
2019-01-18T16:05:36.195Z,98293.50
2019-01-18T16:09:40.863Z,98290.49
2019-01-18T16:13:45.542Z,98299.94
2019-01-18T16:17:50.386Z,98294.75
2019-01-18T16:21:55.066Z,98296.48
2019-01-18T16:25:59.742Z,98295.17
2019-01-18T16:30:07.681Z,98300.34
2019-01-18T16:34:12.363Z,98300.76
2019-01-18T16:38:18.022Z,98298.59
2019-01-18T16:42:22.705Z,98300.31
2019-01-18T16:46:27.390Z,98289.17
2019-01-18T16:50:32.075Z,98296.88
2019-01-18T16:54:36.756Z,98295.97
2019-01-18T16:58:41.473Z,98290.75
2019-01-18T17:02:46.122Z,98285.14
2019-01-18T17:06:50.794Z,98292.00
2019-01-18T17:10:55.471Z,98294.13
2019-01-18T17:15:00.176Z,98297.98
2019-01-18T17:19:04.865Z,98298.42
2019-01-18T17:23:09.545Z,98290.70
2019-01-18T17:27:14.230Z,98289.39
2019-01-18T17:31:18.923Z,98293.64
2019-01-18T17:35:51.012Z,98293.19
2019-01-18T17:39:55.774Z,98296.61
2019-01-18T17:44:30.814Z,98291.81
2019-01-18T17:48:47.592Z,98292.26
2019-01-18T17:52:55.533Z,98295.25
2019-01-18T17:57:06.661Z,98291.37
2019-01-18T18:01:14.608Z,98299.95
2019-01-18T18:05:26.439Z,98296.48
2019-01-18T18:09:37.291Z,98291.78
2019-01-18T18:13:51.573Z,98296.06
2019-01-18T18:18:17.724Z,98296.06
2019-01-18T18:22:54.583Z,98296.52
2019-01-18T18:27:35.711Z,98290.92
2019-01-18T18:32:00.277Z,98291.80
2019-01-18T18:36:26.392Z,98294.41
2019-01-18T18:40:37.448Z,98296.52
2019-01-18T18:45:07.915Z,98293.88
2019-01-18T18:49:18.631Z,98285.67
2019-01-18T18:53:29.387Z,98289.54
2019-01-18T18:57:51.790Z,98293.36
2019-01-18T19:02:02.852Z,98282.58
2019-01-18T19:06:13.566Z,98286.44
2019-01-18T19:10:42.670Z,98289.95
2019-01-18T19:14:53.279Z,98285.16
2019-01-18T19:19:10.416Z,98279.20
2019-01-18T19:23:18.359Z,98279.62
2019-01-18T19:27:35.104Z,98275.30
2019-01-18T19:31:49.002Z,98279.55
2019-01-18T19:36:11.613Z,98275.57
2019-01-18T19:40:22.264Z,98277.23
2019-01-18T19:44:44.815Z,98278.94
2019-01-18T19:48:58.383Z,98272.91
2019-01-18T19:53:12.011Z,98271.61
2019-01-18T19:57:22.639Z,98267.25
2019-01-18T20:01:42.844Z,98274.98
2019-01-18T20:05:53.759Z,98271.08
2019-01-18T20:10:08.355Z,98269.42
2019-01-18T20:14:25.076Z,98266.92
2019-01-18T20:18:33.025Z,98264.37
2019-01-18T20:22:46.564Z,98266.55
2019-01-18T20:27:03.199Z,98261.39
2019-01-18T20:31:11.164Z,98261.80
2019-01-18T20:35:36.927Z,98257.55
2019-01-18T20:39:47.425Z,98260.50
2019-01-18T20:44:13.600Z,98262.55
2019-01-18T20:48:37.742Z,98254.85
2019-01-18T20:53:12.556Z,98258.18
2019-01-18T20:57:38.431Z,98256.84
2019-01-18T21:02:01.170Z,98263.33
2019-01-18T21:06:17.873Z,98264.98
2019-01-18T21:10:40.801Z,98260.31
2019-01-18T21:15:06.876Z,98262.02
2019-01-18T21:19:38.188Z,98257.73
2019-01-18T21:23:48.710Z,98256.42
2019-01-18T21:28:02.592Z,98254.22
2019-01-18T21:32:28.558Z,98248.94
2019-01-18T21:36:56.044Z,98259.18
2019-01-18T21:41:12.977Z,98256.16
2019-01-18T21:45:41.998Z,98254.96
2019-01-18T21:49:55.016Z,98257.18
2019-01-18T21:54:08.665Z,98251.16
2019-01-18T21:58:31.726Z,98253.28
2019-01-18T22:02:56.170Z,98258.40
2019-01-18T22:07:16.109Z,98256.61
2019-01-18T22:11:49.854Z,98258.70
2019-01-18T22:16:15.663Z,98249.60
2019-01-18T22:20:41.482Z,98249.28
2019-01-18T22:24:52.376Z,98246.69
2019-01-18T22:29:24.230Z,98243.53
2019-01-18T22:33:50.216Z,98249.89
2019-01-18T22:38:19.278Z,98245.09
2019-01-18T22:42:29.842Z,98249.00
2019-01-18T22:46:54.498Z,98251.56
2019-01-18T22:51:02.453Z,98250.26
2019-01-18T22:55:19.126Z,98250.66
2019-01-18T22:59:51.307Z,98250.18
2019-01-18T23:03:59.264Z,98252.70
2019-01-18T23:08:16.317Z,98243.77
2019-01-18T23:12:39.288Z,98243.64
2019-01-18T23:17:02.104Z,98241.02
2019-01-18T23:21:10.108Z,98238.39
2019-01-18T23:25:20.684Z,98239.85
2019-01-18T23:29:40.525Z,98238.03
2019-01-18T23:33:48.485Z,98238.45
2019-01-18T23:38:08.368Z,98236.57
2019-01-18T23:42:12.121Z,98245.01
2019-01-18T23:46:35.875Z,98250.97
2019-01-18T23:50:49.669Z,98248.05
2019-01-18T23:55:00.200Z,98244.77
2019-01-18T23:59:11.114Z,98246.53
